sensor_id;sensor_type;location;lat;lon;timestamp;pressure;altitude;pressure_sealevel;temperature
67501;BMP180;54349;52.528;19.760;2023-04-03T00:01:29;101360.80;;;22.90
67501;BMP180;54349;52.528;19.760;2023-04-03T00:03:57;101358.60;;;22.90
67501;BMP180;54349;52.528;19.760;2023-04-03T00:06:26;101360.40;;;22.90
67501;BMP180;54349;52.528;19.760;2023-04-03T00:08:56;101362.80;;;22.90
67501;BMP180;54349;52.528;19.760;2023-04-03T00:11:24;101365.80;;;22.90
67501;BMP180;54349;52.528;19.760;2023-04-03T00:13:54;101365.40;;;22.90
67501;BMP180;54349;52.528;19.760;2023-04-03T00:16:23;101368.80;;;22.90
67501;BMP180;54349;52.528;19.760;2023-04-03T00:18:51;101368.40;;;22.90
67501;BMP180;54349;52.528;19.760;2023-04-03T00:21:19;101368.40;;;22.90
67501;BMP180;54349;52.528;19.760;2023-04-03T00:23:47;101368.40;;;22.84
67501;BMP180;54349;52.528;19.760;2023-04-03T00:26:16;101369.60;;;22.80
67501;BMP180;54349;52.528;19.760;2023-04-03T00:28:45;101370.80;;;22.80
67501;BMP180;54349;52.528;19.760;2023-04-03T00:31:16;101369.80;;;22.80
67501;BMP180;54349;52.528;19.760;2023-04-03T00:33:44;101369.00;;;22.80
67501;BMP180;54349;52.528;19.760;2023-04-03T00:36:13;101371.80;;;22.70
67501;BMP180;54349;52.528;19.760;2023-04-03T00:38:42;101373.20;;;22.70
67501;BMP180;54349;52.528;19.760;2023-04-03T00:41:10;101374.80;;;22.70
67501;BMP180;54349;52.528;19.760;2023-04-03T00:43:38;101374.80;;;22.70
67501;BMP180;54349;52.528;19.760;2023-04-03T00:46:08;101371.80;;;22.70
67501;BMP180;54349;52.528;19.760;2023-04-03T00:48:44;101376.60;;;22.62
67501;BMP180;54349;52.528;19.760;2023-04-03T00:51:20;101372.20;;;22.60
67501;BMP180;54349;52.528;19.760;2023-04-03T00:54:00;101374.20;;;22.60
67501;BMP180;54349;52.528;19.760;2023-04-03T00:56:31;101373.00;;;22.60
67501;BMP180;54349;52.528;19.760;2023-04-03T00:59:14;101376.60;;;22.60
67501;BMP180;54349;52.528;19.760;2023-04-03T01:01:44;101378.40;;;22.50
67501;BMP180;54349;52.528;19.760;2023-04-03T01:04:49;101381.80;;;22.50
67501;BMP180;54349;52.528;19.760;2023-04-03T01:07:27;101384.60;;;22.50
67501;BMP180;54349;52.528;19.760;2023-04-03T01:10:02;101384.80;;;22.50
67501;BMP180;54349;52.528;19.760;2023-04-03T01:12:38;101387.40;;;22.40
67501;BMP180;54349;52.528;19.760;2023-04-03T01:15:15;101385.40;;;22.40
67501;BMP180;54349;52.528;19.760;2023-04-03T01:18:02;101384.40;;;22.40
67501;BMP180;54349;52.528;19.760;2023-04-03T01:26:09;101395.60;;;22.38
67501;BMP180;54349;52.528;19.760;2023-04-03T01:28:39;101397.40;;;22.30
67501;BMP180;54349;52.528;19.760;2023-04-03T01:33:48;101406.20;;;22.30
67501;BMP180;54349;52.528;19.760;2023-04-03T01:36:29;101408.20;;;22.30
67501;BMP180;54349;52.528;19.760;2023-04-03T01:39:00;101409.60;;;22.30
67501;BMP180;54349;52.528;19.760;2023-04-03T01:41:29;101407.20;;;22.28
67501;BMP180;54349;52.528;19.760;2023-04-03T01:44:08;101412.60;;;22.22
67501;BMP180;54349;52.528;19.760;2023-04-03T01:46:36;101410.80;;;22.20
67501;BMP180;54349;52.528;19.760;2023-04-03T01:49:05;101411.40;;;22.20
67501;BMP180;54349;52.528;19.760;2023-04-03T01:51:34;101410.20;;;22.20
67501;BMP180;54349;52.528;19.760;2023-04-03T01:54:05;101413.00;;;22.20
67501;BMP180;54349;52.528;19.760;2023-04-03T01:56:34;101415.20;;;22.20
67501;BMP180;54349;52.528;19.760;2023-04-03T01:59:02;101417.60;;;22.20
67501;BMP180;54349;52.528;19.760;2023-04-03T02:01:36;101418.60;;;22.20
67501;BMP180;54349;52.528;19.760;2023-04-03T02:04:04;101418.80;;;22.14
67501;BMP180;54349;52.528;19.760;2023-04-03T02:06:33;101423.60;;;22.10
67501;BMP180;54349;52.528;19.760;2023-04-03T02:09:04;101423.00;;;22.10
67501;BMP180;54349;52.528;19.760;2023-04-03T02:11:32;101421.20;;;22.10
67501;BMP180;54349;52.528;19.760;2023-04-03T02:14:01;101421.80;;;22.10
67501;BMP180;54349;52.528;19.760;2023-04-03T02:16:29;101427.80;;;22.10
67501;BMP180;54349;52.528;19.760;2023-04-03T02:18:58;101430.20;;;22.10
67501;BMP180;54349;52.528;19.760;2023-04-03T02:21:27;101425.60;;;22.02
67501;BMP180;54349;52.528;19.760;2023-04-03T02:23:56;101435.00;;;22.00
67501;BMP180;54349;52.528;19.760;2023-04-03T02:26:25;101434.40;;;22.00
67501;BMP180;54349;52.528;19.760;2023-04-03T02:28:53;101434.40;;;22.00
67501;BMP180;54349;52.528;19.760;2023-04-03T02:31:22;101435.20;;;22.00
67501;BMP180;54349;52.528;19.760;2023-04-03T02:33:52;101437.40;;;22.00
67501;BMP180;54349;52.528;19.760;2023-04-03T02:36:21;101438.80;;;22.00
67501;BMP180;54349;52.528;19.760;2023-04-03T02:38:54;101440.80;;;21.90
67501;BMP180;54349;52.528;19.760;2023-04-03T02:41:25;101442.80;;;21.90
67501;BMP180;54349;52.528;19.760;2023-04-03T02:44:04;101439.60;;;21.90
67501;BMP180;54349;52.528;19.760;2023-04-03T02:46:33;101442.40;;;21.90
67501;BMP180;54349;52.528;19.760;2023-04-03T02:49:03;101442.60;;;21.90
67501;BMP180;54349;52.528;19.760;2023-04-03T02:51:32;101449.80;;;21.90
67501;BMP180;54349;52.528;19.760;2023-04-03T02:54:01;101452.80;;;21.90
67501;BMP180;54349;52.528;19.760;2023-04-03T02:56:31;101453.40;;;21.90
67501;BMP180;54349;52.528;19.760;2023-04-03T02:58:59;101449.80;;;21.84
67501;BMP180;54349;52.528;19.760;2023-04-03T03:01:28;101455.40;;;21.80
67501;BMP180;54349;52.528;19.760;2023-04-03T03:04:00;101452.40;;;21.80
67501;BMP180;54349;52.528;19.760;2023-04-03T03:06:29;101456.20;;;21.80
67501;BMP180;54349;52.528;19.760;2023-04-03T03:08:58;101460.60;;;21.80
67501;BMP180;54349;52.528;19.760;2023-04-03T03:11:30;101464.00;;;21.80
67501;BMP180;54349;52.528;19.760;2023-04-03T03:13:58;101465.40;;;21.80
67501;BMP180;54349;52.528;19.760;2023-04-03T03:16:26;101462.80;;;21.80
67501;BMP180;54349;52.528;19.760;2023-04-03T03:18:57;101463.20;;;21.78
67501;BMP180;54349;52.528;19.760;2023-04-03T03:21:27;101466.60;;;21.72
67501;BMP180;54349;52.528;19.760;2023-04-03T03:23:55;101472.00;;;21.70
67501;BMP180;54349;52.528;19.760;2023-04-03T03:26:24;101473.60;;;21.70
67501;BMP180;54349;52.528;19.760;2023-04-03T03:28:53;101473.40;;;21.70
67501;BMP180;54349;52.528;19.760;2023-04-03T03:31:21;101475.40;;;21.70
67501;BMP180;54349;52.528;19.760;2023-04-03T03:33:49;101471.60;;;21.70
67501;BMP180;54349;52.528;19.760;2023-04-03T03:36:18;101474.60;;;21.70
67501;BMP180;54349;52.528;19.760;2023-04-03T03:38:46;101480.60;;;21.70
67501;BMP180;54349;52.528;19.760;2023-04-03T03:41:14;101478.80;;;21.68
67501;BMP180;54349;52.528;19.760;2023-04-03T03:43:43;101478.40;;;21.62
67501;BMP180;54349;52.528;19.760;2023-04-03T03:46:12;101480.80;;;21.60
67501;BMP180;54349;52.528;19.760;2023-04-03T03:48:40;101477.60;;;21.60
67501;BMP180;54349;52.528;19.760;2023-04-03T03:51:09;101479.40;;;21.60
67501;BMP180;54349;52.528;19.760;2023-04-03T03:53:40;101481.60;;;21.60
67501;BMP180;54349;52.528;19.760;2023-04-03T03:56:12;101485.60;;;21.60
67501;BMP180;54349;52.528;19.760;2023-04-03T03:58:41;101487.80;;;21.60
67501;BMP180;54349;52.528;19.760;2023-04-03T04:01:10;101492.00;;;21.60
67501;BMP180;54349;52.528;19.760;2023-04-03T04:03:42;101496.00;;;21.56
67501;BMP180;54349;52.528;19.760;2023-04-03T04:06:11;101500.80;;;21.54
67501;BMP180;54349;52.528;19.760;2023-04-03T04:08:40;101503.80;;;21.50
67501;BMP180;54349;52.528;19.760;2023-04-03T04:11:11;101499.00;;;21.50
67501;BMP180;54349;52.528;19.760;2023-04-03T04:13:42;101500.80;;;21.50
67501;BMP180;54349;52.528;19.760;2023-04-03T04:16:12;101506.20;;;21.50
67501;BMP180;54349;52.528;19.760;2023-04-03T04:18:42;101509.60;;;21.50
67501;BMP180;54349;52.528;19.760;2023-04-03T04:21:13;101513.00;;;21.50
67501;BMP180;54349;52.528;19.760;2023-04-03T04:23:42;101508.80;;;21.50
67501;BMP180;54349;52.528;19.760;2023-04-03T04:26:11;101510.80;;;21.50
67501;BMP180;54349;52.528;19.760;2023-04-03T04:28:40;101515.20;;;21.50
67501;BMP180;54349;52.528;19.760;2023-04-03T04:31:10;101513.80;;;21.50
67501;BMP180;54349;52.528;19.760;2023-04-03T04:33:39;101514.80;;;21.50
67501;BMP180;54349;52.528;19.760;2023-04-03T04:36:11;101514.60;;;21.48
67501;BMP180;54349;52.528;19.760;2023-04-03T04:38:41;101514.60;;;21.44
67501;BMP180;54349;52.528;19.760;2023-04-03T04:41:11;101517.60;;;21.40
67501;BMP180;54349;52.528;19.760;2023-04-03T04:43:41;101521.60;;;21.40
67501;BMP180;54349;52.528;19.760;2023-04-03T04:46:11;101520.80;;;21.40
67501;BMP180;54349;52.528;19.760;2023-04-03T04:48:46;101522.60;;;21.40
67501;BMP180;54349;52.528;19.760;2023-04-03T04:51:17;101523.00;;;21.40
67501;BMP180;54349;52.528;19.760;2023-04-03T04:53:45;101521.80;;;21.40
67501;BMP180;54349;52.528;19.760;2023-04-03T04:56:14;101522.00;;;21.40
67501;BMP180;54349;52.528;19.760;2023-04-03T04:58:43;101524.60;;;21.40
67501;BMP180;54349;52.528;19.760;2023-04-03T05:01:11;101527.80;;;21.40
67501;BMP180;54349;52.528;19.760;2023-04-03T05:03:47;101529.20;;;21.40
67501;BMP180;54349;52.528;19.760;2023-04-03T05:06:17;101532.00;;;21.40
67501;BMP180;54349;52.528;19.760;2023-04-03T05:08:46;101534.40;;;21.30
67501;BMP180;54349;52.528;19.760;2023-04-03T05:11:14;101536.60;;;21.36
67501;BMP180;54349;52.528;19.760;2023-04-03T05:13:43;101534.80;;;21.30
67501;BMP180;54349;52.528;19.760;2023-04-03T05:16:13;101537.60;;;21.30
67501;BMP180;54349;52.528;19.760;2023-04-03T05:18:41;101539.20;;;21.30
67501;BMP180;54349;52.528;19.760;2023-04-03T05:21:14;101542.80;;;21.30
67501;BMP180;54349;52.528;19.760;2023-04-03T05:23:44;101542.00;;;21.30
67501;BMP180;54349;52.528;19.760;2023-04-03T05:26:14;101544.40;;;21.30
67501;BMP180;54349;52.528;19.760;2023-04-03T05:28:45;101543.00;;;21.30
67501;BMP180;54349;52.528;19.760;2023-04-03T05:31:13;101547.60;;;21.38
67501;BMP180;54349;52.528;19.760;2023-04-03T05:33:44;101547.00;;;21.40
67501;BMP180;54349;52.528;19.760;2023-04-03T05:36:20;101550.40;;;21.40
67501;BMP180;54349;52.528;19.760;2023-04-03T05:38:55;101554.20;;;21.40
67501;BMP180;54349;52.528;19.760;2023-04-03T05:41:28;101553.20;;;21.42
67501;BMP180;54349;52.528;19.760;2023-04-03T05:43:56;101556.80;;;21.50
67501;BMP180;54349;52.528;19.760;2023-04-03T05:46:26;101553.20;;;21.50
67501;BMP180;54349;52.528;19.760;2023-04-03T05:48:57;101554.80;;;21.50
67501;BMP180;54349;52.528;19.760;2023-04-03T05:51:36;101558.20;;;21.50
67501;BMP180;54349;52.528;19.760;2023-04-03T05:54:27;101564.00;;;21.52
67501;BMP180;54349;52.528;19.760;2023-04-03T05:57:03;101565.80;;;21.60
67501;BMP180;54349;52.528;19.760;2023-04-03T05:59:32;101559.20;;;21.60
67501;BMP180;54349;52.528;19.760;2023-04-03T06:02:04;101563.40;;;21.60
67501;BMP180;54349;52.528;19.760;2023-04-03T06:04:34;101563.00;;;21.60
67501;BMP180;54349;52.528;19.760;2023-04-03T06:07:04;101564.40;;;21.66
67501;BMP180;54349;52.528;19.760;2023-04-03T06:09:34;101566.20;;;21.70
67501;BMP180;54349;52.528;19.760;2023-04-03T06:12:07;101561.80;;;21.70
67501;BMP180;54349;52.528;19.760;2023-04-03T06:14:39;101563.60;;;21.70
67501;BMP180;54349;52.528;19.760;2023-04-03T06:17:10;101567.60;;;21.70
67501;BMP180;54349;52.528;19.760;2023-04-03T06:19:42;101571.20;;;21.76
67501;BMP180;54349;52.528;19.760;2023-04-03T06:22:12;101575.60;;;21.80
67501;BMP180;54349;52.528;19.760;2023-04-03T06:24:43;101578.40;;;21.72
67501;BMP180;54349;52.528;19.760;2023-04-03T06:27:14;101580.80;;;21.70
67501;BMP180;54349;52.528;19.760;2023-04-03T06:29:45;101585.40;;;21.70
67501;BMP180;54349;52.528;19.760;2023-04-03T06:32:16;101589.00;;;21.70
67501;BMP180;54349;52.528;19.760;2023-04-03T06:34:47;101594.40;;;21.70
67501;BMP180;54349;52.528;19.760;2023-04-03T06:37:22;101591.20;;;21.72
67501;BMP180;54349;52.528;19.760;2023-04-03T06:39:55;101601.60;;;21.72
67501;BMP180;54349;52.528;19.760;2023-04-03T06:42:28;101598.80;;;21.78
67501;BMP180;54349;52.528;19.760;2023-04-03T06:45:16;101602.60;;;21.80
67501;BMP180;54349;52.528;19.760;2023-04-03T06:47:46;101603.20;;;21.80
67501;BMP180;54349;52.528;19.760;2023-04-03T06:50:16;101612.80;;;21.80
67501;BMP180;54349;52.528;19.760;2023-04-03T06:52:45;101614.40;;;21.80
67501;BMP180;54349;52.528;19.760;2023-04-03T06:55:14;101620.60;;;21.80
67501;BMP180;54349;52.528;19.760;2023-04-03T06:57:42;101617.40;;;21.80
67501;BMP180;54349;52.528;19.760;2023-04-03T07:00:13;101625.00;;;21.82
67501;BMP180;54349;52.528;19.760;2023-04-03T07:02:42;101626.00;;;21.90
67501;BMP180;54349;52.528;19.760;2023-04-03T07:05:12;101635.00;;;21.90
67501;BMP180;54349;52.528;19.760;2023-04-03T07:07:43;101634.60;;;21.90
67501;BMP180;54349;52.528;19.760;2023-04-03T07:10:12;101629.40;;;21.90
67501;BMP180;54349;52.528;19.760;2023-04-03T07:12:42;101635.40;;;21.90
67501;BMP180;54349;52.528;19.760;2023-04-03T07:15:13;101637.00;;;21.90
67501;BMP180;54349;52.528;19.760;2023-04-03T07:17:42;101635.20;;;21.90
67501;BMP180;54349;52.528;19.760;2023-04-03T07:20:11;101633.60;;;21.90
67501;BMP180;54349;52.528;19.760;2023-04-03T07:22:41;101641.40;;;21.90
67501;BMP180;54349;52.528;19.760;2023-04-03T07:25:10;101639.00;;;21.90
67501;BMP180;54349;52.528;19.760;2023-04-03T07:27:39;101638.40;;;21.88
67501;BMP180;54349;52.528;19.760;2023-04-03T07:30:08;101644.60;;;21.80
67501;BMP180;54349;52.528;19.760;2023-04-03T07:32:37;101643.40;;;21.80
67501;BMP180;54349;52.528;19.760;2023-04-03T07:35:07;101648.40;;;21.80
67501;BMP180;54349;52.528;19.760;2023-04-03T07:37:36;101644.40;;;21.80
67501;BMP180;54349;52.528;19.760;2023-04-03T07:40:06;101642.20;;;21.80
67501;BMP180;54349;52.528;19.760;2023-04-03T07:42:35;101645.60;;;21.74
67501;BMP180;54349;52.528;19.760;2023-04-03T07:45:09;101648.20;;;21.70
67501;BMP180;54349;52.528;19.760;2023-04-03T07:47:37;101648.80;;;21.70
67501;BMP180;54349;52.528;19.760;2023-04-03T07:50:08;101648.40;;;21.70
67501;BMP180;54349;52.528;19.760;2023-04-03T07:52:37;101650.00;;;21.70
67501;BMP180;54349;52.528;19.760;2023-04-03T07:55:06;101651.00;;;21.70
67501;BMP180;54349;52.528;19.760;2023-04-03T07:57:35;101650.80;;;21.70
67501;BMP180;54349;52.528;19.760;2023-04-03T08:00:05;101648.20;;;21.70
67501;BMP180;54349;52.528;19.760;2023-04-03T08:02:45;101649.00;;;21.70
67501;BMP180;54349;52.528;19.760;2023-04-03T08:05:21;101649.60;;;21.70
67501;BMP180;54349;52.528;19.760;2023-04-03T08:07:50;101654.80;;;21.70
67501;BMP180;54349;52.528;19.760;2023-04-03T08:10:18;101648.60;;;21.70
67501;BMP180;54349;52.528;19.760;2023-04-03T08:12:48;101653.00;;;21.70
67501;BMP180;54349;52.528;19.760;2023-04-03T08:15:17;101657.40;;;21.70
67501;BMP180;54349;52.528;19.760;2023-04-03T08:17:45;101658.00;;;21.70
67501;BMP180;54349;52.528;19.760;2023-04-03T08:20:14;101657.40;;;21.70
67501;BMP180;54349;52.528;19.760;2023-04-03T08:22:47;101653.60;;;21.70
67501;BMP180;54349;52.528;19.760;2023-04-03T08:25:17;101668.20;;;21.70
67501;BMP180;54349;52.528;19.760;2023-04-03T08:27:49;101663.20;;;21.70
67501;BMP180;54349;52.528;19.760;2023-04-03T08:30:19;101666.60;;;21.70
67501;BMP180;54349;52.528;19.760;2023-04-03T08:32:47;101662.00;;;21.70
67501;BMP180;54349;52.528;19.760;2023-04-03T08:35:16;101666.60;;;21.70
67501;BMP180;54349;52.528;19.760;2023-04-03T08:37:44;101662.80;;;21.70
67501;BMP180;54349;52.528;19.760;2023-04-03T08:40:16;101662.00;;;21.70
67501;BMP180;54349;52.528;19.760;2023-04-03T08:45:46;101667.20;;;21.70
67501;BMP180;54349;52.528;19.760;2023-04-03T08:48:27;101666.80;;;21.70
67501;BMP180;54349;52.528;19.760;2023-04-03T08:51:03;101669.80;;;21.70
67501;BMP180;54349;52.528;19.760;2023-04-03T08:53:46;101667.00;;;21.70
67501;BMP180;54349;52.528;19.760;2023-04-03T08:56:22;101671.20;;;21.70
67501;BMP180;54349;52.528;19.760;2023-04-03T08:59:03;101673.80;;;21.70
67501;BMP180;54349;52.528;19.760;2023-04-03T09:01:37;101670.00;;;21.70
67501;BMP180;54349;52.528;19.760;2023-04-03T09:04:16;101671.40;;;21.70
67501;BMP180;54349;52.528;19.760;2023-04-03T09:06:56;101669.00;;;21.70
67501;BMP180;54349;52.528;19.760;2023-04-03T09:09:35;101670.40;;;21.70
67501;BMP180;54349;52.528;19.760;2023-04-03T09:12:24;101671.60;;;21.70
67501;BMP180;54349;52.528;19.760;2023-04-03T09:17:45;101670.60;;;21.76
67501;BMP180;54349;52.528;19.760;2023-04-03T09:23:49;101672.00;;;21.80
67501;BMP180;54349;52.528;19.760;2023-04-03T09:26:57;101672.60;;;21.80
67501;BMP180;54349;52.528;19.760;2023-04-03T09:29:28;101676.20;;;21.80
67501;BMP180;54349;52.528;19.760;2023-04-03T09:32:18;101670.00;;;21.80
67501;BMP180;54349;52.528;19.760;2023-04-03T09:34:48;101675.00;;;21.80
67501;BMP180;54349;52.528;19.760;2023-04-03T09:37:43;101672.00;;;21.80
67501;BMP180;54349;52.528;19.760;2023-04-03T09:43:08;101677.60;;;21.80
67501;BMP180;54349;52.528;19.760;2023-04-03T09:45:51;101670.80;;;21.80
67501;BMP180;54349;52.528;19.760;2023-04-03T09:48:25;101669.20;;;21.80
67501;BMP180;54349;52.528;19.760;2023-04-03T09:50:59;101669.40;;;21.80
67501;BMP180;54349;52.528;19.760;2023-04-03T09:53:44;101663.00;;;21.80
67501;BMP180;54349;52.528;19.760;2023-04-03T09:58:48;101670.40;;;21.80
67501;BMP180;54349;52.528;19.760;2023-04-03T10:04:15;101675.40;;;21.80
67501;BMP180;54349;52.528;19.760;2023-04-03T10:06:51;101668.20;;;21.80
67501;BMP180;54349;52.528;19.760;2023-04-03T10:09:27;101668.40;;;21.80
67501;BMP180;54349;52.528;19.760;2023-04-03T10:15:18;101672.20;;;21.90
67501;BMP180;54349;52.528;19.760;2023-04-03T10:18:02;101667.00;;;21.90
67501;BMP180;54349;52.528;19.760;2023-04-03T10:20:51;101671.60;;;21.90
67501;BMP180;54349;52.528;19.760;2023-04-03T10:23:43;101676.40;;;21.90
67501;BMP180;54349;52.528;19.760;2023-04-03T10:29:42;101674.00;;;21.94
67501;BMP180;54349;52.528;19.760;2023-04-03T10:32:45;101671.40;;;22.00
67501;BMP180;54349;52.528;19.760;2023-04-03T10:38:48;101669.00;;;22.00
67501;BMP180;54349;52.528;19.760;2023-04-03T10:41:40;101669.40;;;22.00
67501;BMP180;54349;52.528;19.760;2023-04-03T10:51:00;101657.00;;;22.00
67501;BMP180;54349;52.528;19.760;2023-04-03T10:54:24;101659.00;;;22.00
67501;BMP180;54349;52.528;19.760;2023-04-03T10:57:06;101656.20;;;22.00
67501;BMP180;54349;52.528;19.760;2023-04-03T10:59:51;101647.60;;;22.02
67501;BMP180;54349;52.528;19.760;2023-04-03T11:02:37;101646.40;;;22.10
67501;BMP180;54349;52.528;19.760;2023-04-03T11:05:47;101646.80;;;22.10
67501;BMP180;54349;52.528;19.760;2023-04-03T11:08:57;101645.00;;;22.10
67501;BMP180;54349;52.528;19.760;2023-04-03T11:11:34;101643.60;;;22.10
67501;BMP180;54349;52.528;19.760;2023-04-03T11:22:34;101642.60;;;22.20
67501;BMP180;54349;52.528;19.760;2023-04-03T11:27:53;101641.60;;;22.20
67501;BMP180;54349;52.528;19.760;2023-04-03T11:33:41;101638.60;;;22.20
67501;BMP180;54349;52.528;19.760;2023-04-03T11:39:07;101628.20;;;22.20
67501;BMP180;54349;52.528;19.760;2023-04-03T11:41:42;101628.00;;;22.20
67501;BMP180;54349;52.528;19.760;2023-04-03T11:44:37;101627.80;;;22.20
67501;BMP180;54349;52.528;19.760;2023-04-03T11:47:10;101634.40;;;22.28
67501;BMP180;54349;52.528;19.760;2023-04-03T11:50:04;101626.00;;;22.30
67501;BMP180;54349;52.528;19.760;2023-04-03T12:08:46;101614.00;;;22.60
67501;BMP180;54349;52.528;19.760;2023-04-03T12:11:30;101619.80;;;22.66
67501;BMP180;54349;52.528;19.760;2023-04-03T12:22:18;101606.60;;;22.72
67501;BMP180;54349;52.528;19.760;2023-04-03T12:24:53;101604.80;;;22.80
67501;BMP180;54349;52.528;19.760;2023-04-03T12:27:32;101609.20;;;22.80
67501;BMP180;54349;52.528;19.760;2023-04-03T12:35:52;101611.40;;;22.80
67501;BMP180;54349;52.528;19.760;2023-04-03T12:39:04;101605.60;;;22.90
67501;BMP180;54349;52.528;19.760;2023-04-03T12:45:06;101603.00;;;22.98
67501;BMP180;54349;52.528;19.760;2023-04-03T12:47:42;101604.80;;;23.00
67501;BMP180;54349;52.528;19.760;2023-04-03T12:50:27;101603.40;;;23.00
67501;BMP180;54349;52.528;19.760;2023-04-03T12:53:11;101604.60;;;23.00
67501;BMP180;54349;52.528;19.760;2023-04-03T12:55:41;101609.20;;;23.06
67501;BMP180;54349;52.528;19.760;2023-04-03T12:58:21;101605.60;;;23.10
67501;BMP180;54349;52.528;19.760;2023-04-03T13:01:11;101607.40;;;23.10
67501;BMP180;54349;52.528;19.760;2023-04-03T13:03:45;101607.60;;;23.10
67501;BMP180;54349;52.528;19.760;2023-04-03T13:06:41;101610.00;;;23.10
67501;BMP180;54349;52.528;19.760;2023-04-03T13:14:30;101606.80;;;23.14
67501;BMP180;54349;52.528;19.760;2023-04-03T13:17:06;101607.20;;;23.18
67501;BMP180;54349;52.528;19.760;2023-04-03T13:19:40;101606.20;;;23.20
67501;BMP180;54349;52.528;19.760;2023-04-03T13:24:52;101596.60;;;23.20
67501;BMP180;54349;52.528;19.760;2023-04-03T13:27:21;101600.20;;;23.20
67501;BMP180;54349;52.528;19.760;2023-04-03T13:29:53;101603.20;;;23.20
67501;BMP180;54349;52.528;19.760;2023-04-03T13:32:27;101603.60;;;23.20
67501;BMP180;54349;52.528;19.760;2023-04-03T13:34:58;101598.80;;;23.20
67501;BMP180;54349;52.528;19.760;2023-04-03T13:37:59;101589.00;;;23.20
67501;BMP180;54349;52.528;19.760;2023-04-03T13:40:29;101592.20;;;23.26
67501;BMP180;54349;52.528;19.760;2023-04-03T13:43:24;101594.80;;;23.30
67501;BMP180;54349;52.528;19.760;2023-04-03T13:48:51;101590.80;;;23.30
67501;BMP180;54349;52.528;19.760;2023-04-03T13:51:25;101588.40;;;23.30
67501;BMP180;54349;52.528;19.760;2023-04-03T13:53:59;101587.40;;;23.30
67501;BMP180;54349;52.528;19.760;2023-04-03T13:56:37;101592.00;;;23.30
67501;BMP180;54349;52.528;19.760;2023-04-03T13:59:30;101594.60;;;23.40
67501;BMP180;54349;52.528;19.760;2023-04-03T14:07:04;101584.60;;;23.40
67501;BMP180;54349;52.528;19.760;2023-04-03T14:09:35;101584.80;;;23.40
67501;BMP180;54349;52.528;19.760;2023-04-03T14:12:20;101586.20;;;23.40
67501;BMP180;54349;52.528;19.760;2023-04-03T14:15:04;101581.80;;;23.40
67501;BMP180;54349;52.528;19.760;2023-04-03T14:17:34;101584.80;;;23.40
67501;BMP180;54349;52.528;19.760;2023-04-03T14:20:06;101589.20;;;23.40
67501;BMP180;54349;52.528;19.760;2023-04-03T14:22:35;101588.80;;;23.40
67501;BMP180;54349;52.528;19.760;2023-04-03T14:25:05;101582.60;;;23.40
67501;BMP180;54349;52.528;19.760;2023-04-03T14:27:41;101579.40;;;23.30
67501;BMP180;54349;52.528;19.760;2023-04-03T14:30:32;101575.20;;;23.30
67501;BMP180;54349;52.528;19.760;2023-04-03T14:33:02;101574.60;;;23.30
67501;BMP180;54349;52.528;19.760;2023-04-03T14:35:30;101573.60;;;23.30
67501;BMP180;54349;52.528;19.760;2023-04-03T14:37:59;101573.80;;;23.30
67501;BMP180;54349;52.528;19.760;2023-04-03T14:40:28;101579.60;;;23.30
67501;BMP180;54349;52.528;19.760;2023-04-03T14:42:56;101575.40;;;23.20
67501;BMP180;54349;52.528;19.760;2023-04-03T14:45:25;101573.40;;;23.20
67501;BMP180;54349;52.528;19.760;2023-04-03T14:47:55;101572.80;;;23.20
67501;BMP180;54349;52.528;19.760;2023-04-03T14:50:27;101576.20;;;23.20
67501;BMP180;54349;52.528;19.760;2023-04-03T14:52:58;101572.00;;;23.20
67501;BMP180;54349;52.528;19.760;2023-04-03T14:55:27;101570.80;;;23.14
67501;BMP180;54349;52.528;19.760;2023-04-03T14:57:56;101572.00;;;23.10
67501;BMP180;54349;52.528;19.760;2023-04-03T15:00:25;101572.40;;;23.10
67501;BMP180;54349;52.528;19.760;2023-04-03T15:02:54;101568.80;;;23.10
67501;BMP180;54349;52.528;19.760;2023-04-03T15:05:26;101573.80;;;23.10
67501;BMP180;54349;52.528;19.760;2023-04-03T15:07:57;101570.60;;;23.04
67501;BMP180;54349;52.528;19.760;2023-04-03T15:10:29;101567.00;;;23.00
67501;BMP180;54349;52.528;19.760;2023-04-03T15:12:58;101565.60;;;23.00
67501;BMP180;54349;52.528;19.760;2023-04-03T15:15:29;101565.80;;;23.00
67501;BMP180;54349;52.528;19.760;2023-04-03T15:17:59;101569.40;;;23.00
67501;BMP180;54349;52.528;19.760;2023-04-03T15:20:28;101566.00;;;22.92
67501;BMP180;54349;52.528;19.760;2023-04-03T15:23:00;101567.60;;;22.92
67501;BMP180;54349;52.528;19.760;2023-04-03T15:25:30;101565.80;;;22.90
67501;BMP180;54349;52.528;19.760;2023-04-03T15:27:59;101572.00;;;22.90
67501;BMP180;54349;52.528;19.760;2023-04-03T15:30:28;101568.40;;;22.90
67501;BMP180;54349;52.528;19.760;2023-04-03T15:32:57;101570.80;;;22.90
67501;BMP180;54349;52.528;19.760;2023-04-03T15:35:25;101577.40;;;22.80
67501;BMP180;54349;52.528;19.760;2023-04-03T15:37:54;101577.20;;;22.80
67501;BMP180;54349;52.528;19.760;2023-04-03T15:40:23;101575.00;;;22.80
67501;BMP180;54349;52.528;19.760;2023-04-03T15:42:52;101574.20;;;22.80
67501;BMP180;54349;52.528;19.760;2023-04-03T15:45:22;101577.60;;;22.80
67501;BMP180;54349;52.528;19.760;2023-04-03T15:47:51;101581.60;;;22.78
67501;BMP180;54349;52.528;19.760;2023-04-03T15:50:21;101582.00;;;22.70
67501;BMP180;54349;52.528;19.760;2023-04-03T15:52:54;101579.60;;;22.70
67501;BMP180;54349;52.528;19.760;2023-04-03T15:55:28;101578.20;;;22.70
67501;BMP180;54349;52.528;19.760;2023-04-03T15:57:57;101581.20;;;22.70
67501;BMP180;54349;52.528;19.760;2023-04-03T16:00:27;101582.20;;;22.70
67501;BMP180;54349;52.528;19.760;2023-04-03T16:03:05;101579.00;;;22.64
67501;BMP180;54349;52.528;19.760;2023-04-03T16:05:36;101582.40;;;22.60
67501;BMP180;54349;52.528;19.760;2023-04-03T16:08:07;101584.20;;;22.60